sensor_id;sensor_type;location;lat;lon;timestamp;temperature;humidity
2363;DHT22;64265;51.664;7.626;2023-07-08T00:00:10;23.10;74.80
2363;DHT22;64265;51.664;7.626;2023-07-08T00:02:39;23.10;74.80
2363;DHT22;64265;51.664;7.626;2023-07-08T00:05:08;23.20;75.00
2363;DHT22;64265;51.664;7.626;2023-07-08T00:07:35;23.20;75.00
2363;DHT22;64265;51.664;7.626;2023-07-08T00:10:04;23.20;75.00
2363;DHT22;64265;51.664;7.626;2023-07-08T00:12:31;23.10;74.80
2363;DHT22;64265;51.664;7.626;2023-07-08T00:14:58;23.10;74.80
2363;DHT22;64265;51.664;7.626;2023-07-08T00:17:25;23.20;75.00
2363;DHT22;64265;51.664;7.626;2023-07-08T00:19:53;23.10;74.80
2363;DHT22;64265;51.664;7.626;2023-07-08T00:22:20;23.20;75.00
2363;DHT22;64265;51.664;7.626;2023-07-08T00:24:50;23.20;75.00
2363;DHT22;64265;51.664;7.626;2023-07-08T00:27:17;23.10;74.90
2363;DHT22;64265;51.664;7.626;2023-07-08T00:29:44;23.10;74.90
2363;DHT22;64265;51.664;7.626;2023-07-08T00:32:13;23.20;75.10
2363;DHT22;64265;51.664;7.626;2023-07-08T00:34:40;23.10;75.00
2363;DHT22;64265;51.664;7.626;2023-07-08T00:37:11;23.10;75.00
2363;DHT22;64265;51.664;7.626;2023-07-08T00:39:38;23.10;75.00
2363;DHT22;64265;51.664;7.626;2023-07-08T00:42:13;23.10;75.00
2363;DHT22;64265;51.664;7.626;2023-07-08T00:44:40;23.20;75.10
2363;DHT22;64265;51.664;7.626;2023-07-08T00:47:09;23.10;75.00
2363;DHT22;64265;51.664;7.626;2023-07-08T00:49:39;23.10;75.00
2363;DHT22;64265;51.664;7.626;2023-07-08T00:52:29;23.10;75.00
2363;DHT22;64265;51.664;7.626;2023-07-08T00:54:58;23.10;75.10
2363;DHT22;64265;51.664;7.626;2023-07-08T00:57:29;23.10;75.00
2363;DHT22;64265;51.664;7.626;2023-07-08T01:00:00;23.10;75.00
2363;DHT22;64265;51.664;7.626;2023-07-08T01:02:29;23.10;75.10
2363;DHT22;64265;51.664;7.626;2023-07-08T01:05:01;23.10;75.00
2363;DHT22;64265;51.664;7.626;2023-07-08T01:07:33;23.10;75.00
2363;DHT22;64265;51.664;7.626;2023-07-08T01:10:03;23.10;75.10
2363;DHT22;64265;51.664;7.626;2023-07-08T01:12:34;23.10;75.10
2363;DHT22;64265;51.664;7.626;2023-07-08T01:15:03;23.10;75.10
2363;DHT22;64265;51.664;7.626;2023-07-08T01:17:30;23.10;75.10
2363;DHT22;64265;51.664;7.626;2023-07-08T01:19:59;23.10;75.10
2363;DHT22;64265;51.664;7.626;2023-07-08T01:22:27;23.10;75.20
2363;DHT22;64265;51.664;7.626;2023-07-08T01:24:57;23.10;75.20
2363;DHT22;64265;51.664;7.626;2023-07-08T01:27:29;23.10;75.20
2363;DHT22;64265;51.664;7.626;2023-07-08T01:29:57;23.10;75.20
2363;DHT22;64265;51.664;7.626;2023-07-08T01:32:24;23.10;75.10
2363;DHT22;64265;51.664;7.626;2023-07-08T01:34:52;23.10;75.20
2363;DHT22;64265;51.664;7.626;2023-07-08T01:37:29;23.10;75.20
2363;DHT22;64265;51.664;7.626;2023-07-08T01:39:57;23.10;75.20
2363;DHT22;64265;51.664;7.626;2023-07-08T01:42:24;23.10;75.20
2363;DHT22;64265;51.664;7.626;2023-07-08T01:44:51;23.10;75.20
2363;DHT22;64265;51.664;7.626;2023-07-08T01:47:20;23.10;75.20
2363;DHT22;64265;51.664;7.626;2023-07-08T01:49:48;23.10;75.20
2363;DHT22;64265;51.664;7.626;2023-07-08T01:52:16;23.10;75.30
2363;DHT22;64265;51.664;7.626;2023-07-08T01:54:54;23.10;75.20
2363;DHT22;64265;51.664;7.626;2023-07-08T01:57:21;23.10;75.30
2363;DHT22;64265;51.664;7.626;2023-07-08T01:59:48;23.10;75.40
2363;DHT22;64265;51.664;7.626;2023-07-08T02:02:15;23.10;75.30
2363;DHT22;64265;51.664;7.626;2023-07-08T02:04:42;23.10;75.30
2363;DHT22;64265;51.664;7.626;2023-07-08T02:07:09;23.10;75.30
2363;DHT22;64265;51.664;7.626;2023-07-08T02:09:35;23.10;75.30
2363;DHT22;64265;51.664;7.626;2023-07-08T02:12:04;23.00;75.20
2363;DHT22;64265;51.664;7.626;2023-07-08T02:14:31;23.10;75.30
2363;DHT22;64265;51.664;7.626;2023-07-08T02:16:58;23.10;75.30
2363;DHT22;64265;51.664;7.626;2023-07-08T02:19:24;23.10;75.30
2363;DHT22;64265;51.664;7.626;2023-07-08T02:21:53;23.10;75.40
2363;DHT22;64265;51.664;7.626;2023-07-08T02:24:20;23.10;75.40
2363;DHT22;64265;51.664;7.626;2023-07-08T02:26:48;23.10;75.30
2363;DHT22;64265;51.664;7.626;2023-07-08T02:29:16;23.10;75.40
2363;DHT22;64265;51.664;7.626;2023-07-08T02:31:43;23.00;75.30
2363;DHT22;64265;51.664;7.626;2023-07-08T02:34:09;23.10;75.40
2363;DHT22;64265;51.664;7.626;2023-07-08T02:36:36;23.00;75.30
2363;DHT22;64265;51.664;7.626;2023-07-08T02:39:04;23.10;75.40
2363;DHT22;64265;51.664;7.626;2023-07-08T02:41:31;23.10;75.40
2363;DHT22;64265;51.664;7.626;2023-07-08T02:43:58;23.00;75.30
2363;DHT22;64265;51.664;7.626;2023-07-08T02:46:26;23.10;75.40
2363;DHT22;64265;51.664;7.626;2023-07-08T02:48:52;23.10;75.50
2363;DHT22;64265;51.664;7.626;2023-07-08T02:51:19;23.00;75.40
2363;DHT22;64265;51.664;7.626;2023-07-08T02:53:47;23.00;75.40
2363;DHT22;64265;51.664;7.626;2023-07-08T02:56:16;23.00;75.40
2363;DHT22;64265;51.664;7.626;2023-07-08T02:58:43;23.00;75.40
2363;DHT22;64265;51.664;7.626;2023-07-08T03:01:10;23.00;75.40
2363;DHT22;64265;51.664;7.626;2023-07-08T03:03:38;23.10;75.60
2363;DHT22;64265;51.664;7.626;2023-07-08T03:06:05;23.00;75.40
2363;DHT22;64265;51.664;7.626;2023-07-08T03:08:31;23.00;75.40
2363;DHT22;64265;51.664;7.626;2023-07-08T03:11:00;23.00;75.40
2363;DHT22;64265;51.664;7.626;2023-07-08T03:13:27;23.10;75.60
2363;DHT22;64265;51.664;7.626;2023-07-08T03:15:54;23.00;75.40
2363;DHT22;64265;51.664;7.626;2023-07-08T03:18:21;23.00;75.40
2363;DHT22;64265;51.664;7.626;2023-07-08T03:20:50;23.00;75.40
2363;DHT22;64265;51.664;7.626;2023-07-08T03:23:17;23.00;75.40
2363;DHT22;64265;51.664;7.626;2023-07-08T03:25:43;23.00;75.60
2363;DHT22;64265;51.664;7.626;2023-07-08T03:28:10;23.00;75.60
2363;DHT22;64265;51.664;7.626;2023-07-08T03:30:40;23.00;75.50
2363;DHT22;64265;51.664;7.626;2023-07-08T03:33:07;23.00;75.40
2363;DHT22;64265;51.664;7.626;2023-07-08T03:35:34;23.00;75.50
2363;DHT22;64265;51.664;7.626;2023-07-08T03:38:02;23.00;75.60
2363;DHT22;64265;51.664;7.626;2023-07-08T03:40:29;23.00;76.00
2363;DHT22;64265;51.664;7.626;2023-07-08T03:42:56;23.00;75.40
2363;DHT22;64265;51.664;7.626;2023-07-08T03:45:23;23.00;75.60
2363;DHT22;64265;51.664;7.626;2023-07-08T03:47:49;23.00;75.60
2363;DHT22;64265;51.664;7.626;2023-07-08T03:50:18;23.00;75.50
2363;DHT22;64265;51.664;7.626;2023-07-08T03:52:45;23.00;75.60
2363;DHT22;64265;51.664;7.626;2023-07-08T03:55:14;23.00;75.60
2363;DHT22;64265;51.664;7.626;2023-07-08T03:57:41;23.00;75.60
2363;DHT22;64265;51.664;7.626;2023-07-08T04:00:08;23.00;75.60
2363;DHT22;64265;51.664;7.626;2023-07-08T04:02:37;23.00;75.60
2363;DHT22;64265;51.664;7.626;2023-07-08T04:05:05;23.00;75.60
2363;DHT22;64265;51.664;7.626;2023-07-08T04:07:32;23.00;75.60
2363;DHT22;64265;51.664;7.626;2023-07-08T04:09:58;23.00;75.70
2363;DHT22;64265;51.664;7.626;2023-07-08T04:12:27;23.00;75.60
2363;DHT22;64265;51.664;7.626;2023-07-08T04:14:53;23.00;75.60
2363;DHT22;64265;51.664;7.626;2023-07-08T04:17:20;22.90;75.50
2363;DHT22;64265;51.664;7.626;2023-07-08T04:19:48;23.00;75.70
2363;DHT22;64265;51.664;7.626;2023-07-08T04:22:15;23.00;75.60
2363;DHT22;64265;51.664;7.626;2023-07-08T04:24:42;23.00;75.70
2363;DHT22;64265;51.664;7.626;2023-07-08T04:27:12;23.00;75.60
2363;DHT22;64265;51.664;7.626;2023-07-08T04:29:41;23.00;75.70
2363;DHT22;64265;51.664;7.626;2023-07-08T04:32:08;23.00;75.70
2363;DHT22;64265;51.664;7.626;2023-07-08T04:34:35;23.00;75.70
2363;DHT22;64265;51.664;7.626;2023-07-08T04:37:01;23.00;75.70
2363;DHT22;64265;51.664;7.626;2023-07-08T04:39:30;23.00;75.70
2363;DHT22;64265;51.664;7.626;2023-07-08T04:41:56;22.90;75.60
2363;DHT22;64265;51.664;7.626;2023-07-08T04:44:23;23.00;75.70
2363;DHT22;64265;51.664;7.626;2023-07-08T04:46:54;23.00;76.50
2363;DHT22;64265;51.664;7.626;2023-07-08T04:49:22;23.00;75.70
2363;DHT22;64265;51.664;7.626;2023-07-08T04:51:50;23.00;75.70
2363;DHT22;64265;51.664;7.626;2023-07-08T04:54:17;23.00;75.70
2363;DHT22;64265;51.664;7.626;2023-07-08T04:56:47;22.90;75.60
2363;DHT22;64265;51.664;7.626;2023-07-08T04:59:16;23.00;75.70
2363;DHT22;64265;51.664;7.626;2023-07-08T05:01:43;23.00;75.80
2363;DHT22;64265;51.664;7.626;2023-07-08T05:04:14;23.00;75.80
2363;DHT22;64265;51.664;7.626;2023-07-08T05:06:41;23.00;75.80
2363;DHT22;64265;51.664;7.626;2023-07-08T05:09:09;23.00;75.70
2363;DHT22;64265;51.664;7.626;2023-07-08T05:11:36;23.00;76.50
2363;DHT22;64265;51.664;7.626;2023-07-08T05:14:03;23.00;75.80
2363;DHT22;64265;51.664;7.626;2023-07-08T05:16:33;23.00;75.80
2363;DHT22;64265;51.664;7.626;2023-07-08T05:19:00;23.00;75.80
2363;DHT22;64265;51.664;7.626;2023-07-08T05:21:29;22.90;75.70
2363;DHT22;64265;51.664;7.626;2023-07-08T05:23:59;23.00;75.80
2363;DHT22;64265;51.664;7.626;2023-07-08T05:26:25;23.00;75.90
2363;DHT22;64265;51.664;7.626;2023-07-08T05:28:52;23.00;76.20
2363;DHT22;64265;51.664;7.626;2023-07-08T05:31:19;22.90;76.20
2363;DHT22;64265;51.664;7.626;2023-07-08T05:33:45;22.90;76.30
2363;DHT22;64265;51.664;7.626;2023-07-08T05:36:12;22.90;76.20
2363;DHT22;64265;51.664;7.626;2023-07-08T05:38:40;22.90;76.30
2363;DHT22;64265;51.664;7.626;2023-07-08T05:41:07;22.90;76.30
2363;DHT22;64265;51.664;7.626;2023-07-08T05:43:34;22.90;76.20
2363;DHT22;64265;51.664;7.626;2023-07-08T05:46:01;22.90;76.30
2363;DHT22;64265;51.664;7.626;2023-07-08T05:48:28;22.90;76.30
2363;DHT22;64265;51.664;7.626;2023-07-08T05:50:55;22.90;76.30
2363;DHT22;64265;51.664;7.626;2023-07-08T05:53:22;22.90;76.40
2363;DHT22;64265;51.664;7.626;2023-07-08T05:55:50;22.90;76.50
2363;DHT22;64265;51.664;7.626;2023-07-08T05:58:17;22.90;76.40
2363;DHT22;64265;51.664;7.626;2023-07-08T06:00:44;22.90;76.40
2363;DHT22;64265;51.664;7.626;2023-07-08T06:03:11;22.90;76.40
2363;DHT22;64265;51.664;7.626;2023-07-08T06:05:38;22.90;76.50
2363;DHT22;64265;51.664;7.626;2023-07-08T06:08:06;22.90;76.50
2363;DHT22;64265;51.664;7.626;2023-07-08T06:10:33;22.90;76.40
2363;DHT22;64265;51.664;7.626;2023-07-08T06:13:02;22.90;76.50
2363;DHT22;64265;51.664;7.626;2023-07-08T06:15:28;22.90;76.50
2363;DHT22;64265;51.664;7.626;2023-07-08T06:17:55;22.90;76.50
2363;DHT22;64265;51.664;7.626;2023-07-08T06:20:26;22.90;76.60
2363;DHT22;64265;51.664;7.626;2023-07-08T06:22:53;22.90;76.50
2363;DHT22;64265;51.664;7.626;2023-07-08T06:25:19;22.90;76.60
2363;DHT22;64265;51.664;7.626;2023-07-08T06:27:46;22.90;76.70
2363;DHT22;64265;51.664;7.626;2023-07-08T06:30:14;22.90;76.70
2363;DHT22;64265;51.664;7.626;2023-07-08T06:32:41;22.90;76.70
2363;DHT22;64265;51.664;7.626;2023-07-08T06:35:08;22.90;76.70
2363;DHT22;64265;51.664;7.626;2023-07-08T06:37:35;22.90;76.70
2363;DHT22;64265;51.664;7.626;2023-07-08T06:40:02;22.90;76.70
2363;DHT22;64265;51.664;7.626;2023-07-08T06:42:28;22.90;76.70
2363;DHT22;64265;51.664;7.626;2023-07-08T06:44:56;22.90;76.70
2363;DHT22;64265;51.664;7.626;2023-07-08T06:47:24;22.90;76.70
2363;DHT22;64265;51.664;7.626;2023-07-08T06:49:50;22.80;77.40
2363;DHT22;64265;51.664;7.626;2023-07-08T06:52:17;22.90;76.70
2363;DHT22;64265;51.664;7.626;2023-07-08T06:54:44;22.90;76.80
2363;DHT22;64265;51.664;7.626;2023-07-08T06:57:10;22.80;76.70
2363;DHT22;64265;51.664;7.626;2023-07-08T06:59:37;22.90;76.80
2363;DHT22;64265;51.664;7.626;2023-07-08T07:02:04;22.90;77.60
2363;DHT22;64265;51.664;7.626;2023-07-08T07:04:32;22.90;76.90
2363;DHT22;64265;51.664;7.626;2023-07-08T07:06:59;22.90;76.80
2363;DHT22;64265;51.664;7.626;2023-07-08T07:09:25;22.90;76.90
2363;DHT22;64265;51.664;7.626;2023-07-08T07:11:52;22.90;76.80
2363;DHT22;64265;51.664;7.626;2023-07-08T07:14:19;22.90;76.80
2363;DHT22;64265;51.664;7.626;2023-07-08T07:16:47;22.90;76.80
2363;DHT22;64265;51.664;7.626;2023-07-08T07:19:13;22.90;76.90
2363;DHT22;64265;51.664;7.626;2023-07-08T07:21:41;22.90;76.90
2363;DHT22;64265;51.664;7.626;2023-07-08T07:24:08;22.90;76.80
2363;DHT22;64265;51.664;7.626;2023-07-08T07:26:35;22.90;76.80
2363;DHT22;64265;51.664;7.626;2023-07-08T07:29:02;22.90;76.80
2363;DHT22;64265;51.664;7.626;2023-07-08T07:31:29;22.90;76.80
2363;DHT22;64265;51.664;7.626;2023-07-08T07:33:58;22.90;77.60
2363;DHT22;64265;51.664;7.626;2023-07-08T07:36:25;22.90;76.80
2363;DHT22;64265;51.664;7.626;2023-07-08T07:38:53;22.90;76.80
2363;DHT22;64265;51.664;7.626;2023-07-08T07:41:19;22.90;76.90
2363;DHT22;64265;51.664;7.626;2023-07-08T07:43:46;22.90;76.90
2363;DHT22;64265;51.664;7.626;2023-07-08T07:46:13;22.90;76.90
2363;DHT22;64265;51.664;7.626;2023-07-08T07:48:40;22.90;76.80
2363;DHT22;64265;51.664;7.626;2023-07-08T07:51:07;22.90;77.00
2363;DHT22;64265;51.664;7.626;2023-07-08T07:53:36;22.90;77.00
2363;DHT22;64265;51.664;7.626;2023-07-08T07:56:04;22.90;76.90
2363;DHT22;64265;51.664;7.626;2023-07-08T07:58:32;22.90;77.00
2363;DHT22;64265;51.664;7.626;2023-07-08T08:00:59;22.90;77.00
2363;DHT22;64265;51.664;7.626;2023-07-08T08:03:26;22.90;77.00
2363;DHT22;64265;51.664;7.626;2023-07-08T08:05:52;22.90;77.20
2363;DHT22;64265;51.664;7.626;2023-07-08T08:08:19;23.00;77.10
2363;DHT22;64265;51.664;7.626;2023-07-08T08:10:47;23.00;77.30
2363;DHT22;64265;51.664;7.626;2023-07-08T08:13:15;23.00;77.30
2363;DHT22;64265;51.664;7.626;2023-07-08T08:15:42;23.00;77.40
2363;DHT22;64265;51.664;7.626;2023-07-08T08:18:09;23.00;77.40
2363;DHT22;64265;51.664;7.626;2023-07-08T08:20:36;23.00;77.40
2363;DHT22;64265;51.664;7.626;2023-07-08T08:23:02;22.90;77.30
2363;DHT22;64265;51.664;7.626;2023-07-08T08:25:29;23.00;77.50
2363;DHT22;64265;51.664;7.626;2023-07-08T08:27:56;22.90;77.40
2363;DHT22;64265;51.664;7.626;2023-07-08T08:30:24;23.00;77.60
2363;DHT22;64265;51.664;7.626;2023-07-08T08:32:50;23.00;77.60
2363;DHT22;64265;51.664;7.626;2023-07-08T08:35:17;23.00;77.60
2363;DHT22;64265;51.664;7.626;2023-07-08T08:37:44;22.90;77.50
2363;DHT22;64265;51.664;7.626;2023-07-08T08:40:13;23.00;77.60
2363;DHT22;64265;51.664;7.626;2023-07-08T08:42:43;22.90;77.50
2363;DHT22;64265;51.664;7.626;2023-07-08T08:45:16;23.00;77.60
2363;DHT22;64265;51.664;7.626;2023-07-08T08:47:47;23.00;77.60
2363;DHT22;64265;51.664;7.626;2023-07-08T08:50:26;23.00;77.60
2363;DHT22;64265;51.664;7.626;2023-07-08T08:52:55;23.00;77.80
2363;DHT22;64265;51.664;7.626;2023-07-08T08:55:23;23.00;77.60
2363;DHT22;64265;51.664;7.626;2023-07-08T08:57:58;23.00;77.60
2363;DHT22;64265;51.664;7.626;2023-07-08T09:00:30;23.00;77.80
2363;DHT22;64265;51.664;7.626;2023-07-08T09:03:03;23.00;77.80
2363;DHT22;64265;51.664;7.626;2023-07-08T09:05:30;23.00;77.60
2363;DHT22;64265;51.664;7.626;2023-07-08T09:08:04;23.00;77.60
2363;DHT22;64265;51.664;7.626;2023-07-08T09:10:42;23.00;77.60
2363;DHT22;64265;51.664;7.626;2023-07-08T09:13:16;23.00;77.60
2363;DHT22;64265;51.664;7.626;2023-07-08T09:15:44;23.00;77.60
2363;DHT22;64265;51.664;7.626;2023-07-08T09:18:19;23.00;77.70
2363;DHT22;64265;51.664;7.626;2023-07-08T09:20:47;23.00;77.80
2363;DHT22;64265;51.664;7.626;2023-07-08T09:23:19;23.00;77.90
2363;DHT22;64265;51.664;7.626;2023-07-08T09:25:51;23.10;78.00
2363;DHT22;64265;51.664;7.626;2023-07-08T09:28:20;23.10;78.00
2363;DHT22;64265;51.664;7.626;2023-07-08T09:30:48;23.10;78.20
2363;DHT22;64265;51.664;7.626;2023-07-08T09:33:20;23.10;78.00
2363;DHT22;64265;51.664;7.626;2023-07-08T09:35:47;23.10;78.00
2363;DHT22;64265;51.664;7.626;2023-07-08T09:38:16;23.10;78.10
2363;DHT22;64265;51.664;7.626;2023-07-08T09:40:46;23.10;78.20
2363;DHT22;64265;51.664;7.626;2023-07-08T09:43:24;23.10;78.20
2363;DHT22;64265;51.664;7.626;2023-07-08T09:45:51;23.10;78.20
2363;DHT22;64265;51.664;7.626;2023-07-08T09:48:24;23.10;78.10
2363;DHT22;64265;51.664;7.626;2023-07-08T09:50:52;23.10;78.30
2363;DHT22;64265;51.664;7.626;2023-07-08T09:53:19;23.10;78.50
2363;DHT22;64265;51.664;7.626;2023-07-08T09:55:46;23.10;78.50
2363;DHT22;64265;51.664;7.626;2023-07-08T09:58:17;23.10;78.50
2363;DHT22;64265;51.664;7.626;2023-07-08T10:00:51;23.10;78.70
2363;DHT22;64265;51.664;7.626;2023-07-08T10:03:22;23.10;78.70
2363;DHT22;64265;51.664;7.626;2023-07-08T10:05:52;23.10;78.50
2363;DHT22;64265;51.664;7.626;2023-07-08T10:08:23;23.10;78.70
2363;DHT22;64265;51.664;7.626;2023-07-08T10:10:57;23.10;78.90
2363;DHT22;64265;51.664;7.626;2023-07-08T10:13:33;23.20;78.80
2363;DHT22;64265;51.664;7.626;2023-07-08T10:16:09;23.20;78.80
2363;DHT22;64265;51.664;7.626;2023-07-08T10:18:38;23.20;78.70
2363;DHT22;64265;51.664;7.626;2023-07-08T10:21:11;23.20;79.00
2363;DHT22;64265;51.664;7.626;2023-07-08T10:23:45;23.20;79.00
2363;DHT22;64265;51.664;7.626;2023-07-08T10:26:19;23.20;78.90
2363;DHT22;64265;51.664;7.626;2023-07-08T10:29:04;23.20;78.90
2363;DHT22;64265;51.664;7.626;2023-07-08T10:31:40;23.20;78.90
2363;DHT22;64265;51.664;7.626;2023-07-08T10:34:20;23.20;79.00
2363;DHT22;64265;51.664;7.626;2023-07-08T10:36:56;23.20;79.00
2363;DHT22;64265;51.664;7.626;2023-07-08T10:39:43;23.20;79.20
2363;DHT22;64265;51.664;7.626;2023-07-08T10:42:21;23.20;79.00
2363;DHT22;64265;51.664;7.626;2023-07-08T10:44:58;23.20;79.00
2363;DHT22;64265;51.664;7.626;2023-07-08T10:47:40;23.20;79.10
2363;DHT22;64265;51.664;7.626;2023-07-08T10:50:25;23.20;79.00
2363;DHT22;64265;51.664;7.626;2023-07-08T10:53:00;23.20;79.10
2363;DHT22;64265;51.664;7.626;2023-07-08T10:55:38;23.20;79.10
2363;DHT22;64265;51.664;7.626;2023-07-08T10:58:39;23.20;79.10
2363;DHT22;64265;51.664;7.626;2023-07-08T11:01:15;23.30;79.20
2363;DHT22;64265;51.664;7.626;2023-07-08T11:04:12;23.30;79.20
2363;DHT22;64265;51.664;7.626;2023-07-08T11:06:48;23.30;79.30
2363;DHT22;64265;51.664;7.626;2023-07-08T11:09:21;23.30;79.10
2363;DHT22;64265;51.664;7.626;2023-07-08T11:11:53;23.30;79.10
2363;DHT22;64265;51.664;7.626;2023-07-08T11:14:26;23.20;78.90
2363;DHT22;64265;51.664;7.626;2023-07-08T11:17:00;23.20;78.90
2363;DHT22;64265;51.664;7.626;2023-07-08T11:19:34;23.30;79.00
2363;DHT22;64265;51.664;7.626;2023-07-08T11:22:06;23.30;78.90
2363;DHT22;64265;51.664;7.626;2023-07-08T11:24:40;23.20;78.90
2363;DHT22;64265;51.664;7.626;2023-07-08T11:27:14;23.20;78.80
2363;DHT22;64265;51.664;7.626;2023-07-08T11:29:46;23.30;79.00
2363;DHT22;64265;51.664;7.626;2023-07-08T11:32:17;23.30;79.00
2363;DHT22;64265;51.664;7.626;2023-07-08T11:34:47;23.30;79.00
2363;DHT22;64265;51.664;7.626;2023-07-08T11:37:15;23.30;79.20
2363;DHT22;64265;51.664;7.626;2023-07-08T11:39:46;23.30;79.30
2363;DHT22;64265;51.664;7.626;2023-07-08T11:42:18;23.30;79.50
2363;DHT22;64265;51.664;7.626;2023-07-08T11:44:48;23.30;79.60
2363;DHT22;64265;51.664;7.626;2023-07-08T11:47:20;23.30;79.80
2363;DHT22;64265;51.664;7.626;2023-07-08T11:49:48;23.30;80.00
2363;DHT22;64265;51.664;7.626;2023-07-08T11:52:18;23.30;80.00
2363;DHT22;64265;51.664;7.626;2023-07-08T11:54:48;23.40;80.40
2363;DHT22;64265;51.664;7.626;2023-07-08T11:57:27;23.40;80.60
2363;DHT22;64265;51.664;7.626;2023-07-08T12:00:16;23.40;80.70
2363;DHT22;64265;51.664;7.626;2023-07-08T12:02:55;23.40;80.70
2363;DHT22;64265;51.664;7.626;2023-07-08T12:05:32;23.40;81.10
2363;DHT22;64265;51.664;7.626;2023-07-08T12:07:59;23.40;81.30
2363;DHT22;64265;51.664;7.626;2023-07-08T12:10:33;23.40;81.40
2363;DHT22;64265;51.664;7.626;2023-07-08T12:13:02;23.40;81.60
2363;DHT22;64265;51.664;7.626;2023-07-08T12:15:30;23.40;81.30
2363;DHT22;64265;51.664;7.626;2023-07-08T12:17:59;23.40;81.60
2363;DHT22;64265;51.664;7.626;2023-07-08T12:20:29;23.50;81.60
2363;DHT22;64265;51.664;7.626;2023-07-08T12:22:57;23.50;81.50
2363;DHT22;64265;51.664;7.626;2023-07-08T12:25:27;23.50;81.60
2363;DHT22;64265;51.664;7.626;2023-07-08T12:27:56;23.50;81.60
2363;DHT22;64265;51.664;7.626;2023-07-08T12:30:23;23.60;81.70
2363;DHT22;64265;51.664;7.626;2023-07-08T12:32:51;23.60;81.70
2363;DHT22;64265;51.664;7.626;2023-07-08T12:35:23;23.60;82.40
2363;DHT22;64265;51.664;7.626;2023-07-08T12:37:52;23.60;81.60
2363;DHT22;64265;51.664;7.626;2023-07-08T12:40:21;23.70;81.60
2363;DHT22;64265;51.664;7.626;2023-07-08T12:42:48;23.70;81.60
2363;DHT22;64265;51.664;7.626;2023-07-08T12:45:20;23.70;81.50
2363;DHT22;64265;51.664;7.626;2023-07-08T12:47:47;23.70;81.40
2363;DHT22;64265;51.664;7.626;2023-07-08T12:50:14;23.80;81.20
2363;DHT22;64265;51.664;7.626;2023-07-08T12:52:43;23.80;81.10
2363;DHT22;64265;51.664;7.626;2023-07-08T12:55:11;23.80;80.80
2363;DHT22;64265;51.664;7.626;2023-07-08T12:57:40;23.80;80.70
2363;DHT22;64265;51.664;7.626;2023-07-08T13:00:13;23.80;80.50
2363;DHT22;64265;51.664;7.626;2023-07-08T13:02:44;23.90;80.40
2363;DHT22;64265;51.664;7.626;2023-07-08T13:05:12;23.90;80.40
2363;DHT22;64265;51.664;7.626;2023-07-08T13:07:41;23.90;80.20
2363;DHT22;64265;51.664;7.626;2023-07-08T13:10:29;23.90;80.30
2363;DHT22;64265;51.664;7.626;2023-07-08T13:12:58;23.90;80.30
2363;DHT22;64265;51.664;7.626;2023-07-08T13:15:29;23.90;80.30
2363;DHT22;64265;51.664;7.626;2023-07-08T13:17:59;23.90;80.30
2363;DHT22;64265;51.664;7.626;2023-07-08T13:20:27;23.90;80.30
2363;DHT22;64265;51.664;7.626;2023-07-08T13:22:57;24.00;80.40
2363;DHT22;64265;51.664;7.626;2023-07-08T13:25:27;24.00;80.30
2363;DHT22;64265;51.664;7.626;2023-07-08T13:27:55;24.00;80.20
2363;DHT22;64265;51.664;7.626;2023-07-08T13:30:25;24.00;80.20
2363;DHT22;64265;51.664;7.626;2023-07-08T13:32:52;24.00;80.10
2363;DHT22;64265;51.664;7.626;2023-07-08T13:35:25;24.10;80.20
2363;DHT22;64265;51.664;7.626;2023-07-08T13:37:53;24.10;80.00
2363;DHT22;64265;51.664;7.626;2023-07-08T13:40:21;24.10;80.00
2363;DHT22;64265;51.664;7.626;2023-07-08T13:42:52;24.10;79.80
2363;DHT22;64265;51.664;7.626;2023-07-08T13:45:24;24.20;79.90
2363;DHT22;64265;51.664;7.626;2023-07-08T13:48:02;24.20;79.80
2363;DHT22;64265;51.664;7.626;2023-07-08T13:50:39;24.20;79.70
2363;DHT22;64265;51.664;7.626;2023-07-08T13:53:18;24.20;79.60
2363;DHT22;64265;51.664;7.626;2023-07-08T13:55:45;24.30;79.60
2363;DHT22;64265;51.664;7.626;2023-07-08T13:58:16;24.30;80.30
2363;DHT22;64265;51.664;7.626;2023-07-08T14:00:43;24.30;79.00
2363;DHT22;64265;51.664;7.626;2023-07-08T14:03:10;24.30;79.00
2363;DHT22;64265;51.664;7.626;2023-07-08T14:05:39;24.30;78.80
2363;DHT22;64265;51.664;7.626;2023-07-08T14:08:12;24.30;78.70
2363;DHT22;64265;51.664;7.626;2023-07-08T14:10:39;24.30;78.60
2363;DHT22;64265;51.664;7.626;2023-07-08T14:13:06;24.40;78.60
2363;DHT22;64265;51.664;7.626;2023-07-08T14:15:33;24.30;78.40
2363;DHT22;64265;51.664;7.626;2023-07-08T14:18:00;24.40;78.60
2363;DHT22;64265;51.664;7.626;2023-07-08T14:20:29;24.40;78.60
2363;DHT22;64265;51.664;7.626;2023-07-08T14:22:57;24.40;78.40
2363;DHT22;64265;51.664;7.626;2023-07-08T14:25:24;24.40;78.50
2363;DHT22;64265;51.664;7.626;2023-07-08T14:27:50;24.40;78.40
2363;DHT22;64265;51.664;7.626;2023-07-08T14:30:17;24.40;78.40
2363;DHT22;64265;51.664;7.626;2023-07-08T14:32:44;24.40;78.50
2363;DHT22;64265;51.664;7.626;2023-07-08T14:35:17;24.40;78.40
2363;DHT22;64265;51.664;7.626;2023-07-08T14:37:43;24.40;78.30
2363;DHT22;64265;51.664;7.626;2023-07-08T14:40:20;24.50;78.50
2363;DHT22;64265;51.664;7.626;2023-07-08T14:42:47;24.50;78.40
2363;DHT22;64265;51.664;7.626;2023-07-08T14:45:15;24.50;78.30
2363;DHT22;64265;51.664;7.626;2023-07-08T14:48:18;24.50;78.30
2363;DHT22;64265;51.664;7.626;2023-07-08T14:54:46;24.50;78.30
2363;DHT22;64265;51.664;7.626;2023-07-08T15:01:07;24.50;79.90
2363;DHT22;64265;51.664;7.626;2023-07-08T15:03:54;24.50;78.10
2363;DHT22;64265;51.664;7.626;2023-07-08T15:06:21;24.50;78.10
2363;DHT22;64265;51.664;7.626;2023-07-08T15:09:05;24.50;78.00
2363;DHT22;64265;51.664;7.626;2023-07-08T15:11:49;24.50;77.80
2363;DHT22;64265;51.664;7.626;2023-07-08T15:14:19;24.50;77.90
2363;DHT22;64265;51.664;7.626;2023-07-08T15:16:48;24.50;77.90
2363;DHT22;64265;51.664;7.626;2023-07-08T15:19:15;24.60;80.20
2363;DHT22;64265;51.664;7.626;2023-07-08T15:21:42;24.50;80.40
2363;DHT22;64265;51.664;7.626;2023-07-08T15:24:11;24.60;80.40
2363;DHT22;64265;51.664;7.626;2023-07-08T15:26:39;24.50;80.90
2363;DHT22;64265;51.664;7.626;2023-07-08T15:29:12;24.60;80.20
2363;DHT22;64265;51.664;7.626;2023-07-08T15:31:39;24.60;82.50
2363;DHT22;64265;51.664;7.626;2023-07-08T15:34:12;24.60;78.50
2363;DHT22;64265;51.664;7.626;2023-07-08T15:36:39;24.60;77.60
2363;DHT22;64265;51.664;7.626;2023-07-08T15:39:06;24.60;77.60
2363;DHT22;64265;51.664;7.626;2023-07-08T15:41:33;24.60;78.60
2363;DHT22;64265;51.664;7.626;2023-07-08T15:44:00;24.60;77.70
2363;DHT22;64265;51.664;7.626;2023-07-08T15:46:30;24.60;77.60
2363;DHT22;64265;51.664;7.626;2023-07-08T15:48:57;24.60;78.70
2363;DHT22;64265;51.664;7.626;2023-07-08T15:51:26;24.60;77.90
2363;DHT22;64265;51.664;7.626;2023-07-08T15:53:54;24.60;78.00
2363;DHT22;64265;51.664;7.626;2023-07-08T15:56:21;24.60;78.10
2363;DHT22;64265;51.664;7.626;2023-07-08T15:58:48;24.60;77.50
2363;DHT22;64265;51.664;7.626;2023-07-08T16:01:17;24.60;77.90
2363;DHT22;64265;51.664;7.626;2023-07-08T16:03:45;24.60;77.80
2363;DHT22;64265;51.664;7.626;2023-07-08T16:06:12;24.50;80.80